createdAt,value
2023-03-18T00:01:04.770Z,42.19
2023-03-18T00:03:32.074Z,42.20
2023-03-18T00:06:24.678Z,42.27
2023-03-18T00:08:52.514Z,42.69
2023-03-18T00:11:19.968Z,42.64
2023-03-18T00:13:46.710Z,42.50
2023-03-18T00:16:13.578Z,42.46
2023-03-18T00:18:40.455Z,42.06
2023-03-18T00:21:07.308Z,42.27
2023-03-18T00:23:34.480Z,42.65
2023-03-18T00:26:01.465Z,42.45
2023-03-18T00:28:28.369Z,42.32
2023-03-18T00:30:56.765Z,42.40
2023-03-18T00:33:23.291Z,42.36
2023-03-18T00:35:50.666Z,42.48
2023-03-18T00:38:24.564Z,42.08
2023-03-18T00:41:01.516Z,42.38
2023-03-18T00:43:33.555Z,42.06
2023-03-18T00:46:02.187Z,42.14
2023-03-18T00:48:29.743Z,41.56
2023-03-18T00:50:56.266Z,41.89
2023-03-18T00:53:25.064Z,41.66
2023-03-18T00:55:52.522Z,41.22
2023-03-18T00:58:19.473Z,41.48
2023-03-18T01:00:46.922Z,41.63
2023-03-18T01:03:14.477Z,41.56
2023-03-18T01:05:40.950Z,41.89
2023-03-18T01:08:08.605Z,41.16
2023-03-18T01:10:35.137Z,41.65
2023-03-18T01:13:02.963Z,41.19
2023-03-18T01:15:29.692Z,41.28
2023-03-18T01:17:57.080Z,41.27
2023-03-18T01:20:25.502Z,41.06
2023-03-18T01:22:54.047Z,41.14
2023-03-18T01:25:22.026Z,41.45
2023-03-18T01:27:52.445Z,41.55
2023-03-18T01:30:19.650Z,41.82
2023-03-18T01:32:46.730Z,41.61
2023-03-18T01:35:13.786Z,41.79
2023-03-18T01:37:46.730Z,42.00
2023-03-18T01:40:14.476Z,42.05
2023-03-18T01:42:42.865Z,42.16
2023-03-18T01:45:42.477Z,42.46
2023-03-18T01:48:14.375Z,42.67
2023-03-18T01:50:41.197Z,42.61
2023-03-18T01:53:11.317Z,42.81
2023-03-18T01:55:38.320Z,43.14
2023-03-18T01:58:07.569Z,43.35
2023-03-18T02:00:38.345Z,43.25
2023-03-18T02:03:04.901Z,43.38
2023-03-18T02:05:31.866Z,43.43
2023-03-18T02:07:58.356Z,43.52
2023-03-18T02:10:26.672Z,43.72
2023-03-18T02:13:00.478Z,43.74
2023-03-18T02:15:35.518Z,44.18
2023-03-18T02:18:05.967Z,44.02
2023-03-18T02:20:53.520Z,44.12
2023-03-18T02:23:27.036Z,44.27
2023-03-18T02:26:12.401Z,44.12
2023-03-18T02:28:39.722Z,44.15
2023-03-18T02:31:10.210Z,44.35
2023-03-18T02:33:38.964Z,44.61
2023-03-18T02:36:07.507Z,44.34
2023-03-18T02:38:43.023Z,44.44
2023-03-18T02:41:22.152Z,44.24
2023-03-18T02:43:50.383Z,44.54
2023-03-18T02:46:23.661Z,44.69
2023-03-18T02:48:50.487Z,44.28
2023-03-18T02:51:17.694Z,44.57
2023-03-18T02:53:45.101Z,44.56
2023-03-18T02:56:11.989Z,44.60
2023-03-18T02:58:41.135Z,44.59
2023-03-18T03:01:09.075Z,44.91
2023-03-18T03:03:36.312Z,44.84
2023-03-18T03:06:03.380Z,44.86
2023-03-18T03:08:30.782Z,45.07
2023-03-18T03:10:57.802Z,45.03
2023-03-18T03:13:25.608Z,44.78
2023-03-18T03:15:54.248Z,45.04
2023-03-18T03:18:21.582Z,44.73
2023-03-18T03:20:48.561Z,44.70
2023-03-18T03:23:16.721Z,44.54
2023-03-18T03:25:44.856Z,44.46
2023-03-18T03:28:13.016Z,44.82
2023-03-18T03:30:39.535Z,45.58
2023-03-18T03:33:06.199Z,45.49
2023-03-18T03:35:33.110Z,45.92
2023-03-18T03:37:59.734Z,45.84
2023-03-18T03:40:27.693Z,46.52
2023-03-18T03:42:54.636Z,46.76
2023-03-18T03:45:21.295Z,46.90
2023-03-18T03:47:48.191Z,47.61
2023-03-18T03:50:16.632Z,47.52
2023-03-18T03:52:43.555Z,47.47
2023-03-18T03:55:12.206Z,47.89
2023-03-18T03:57:39.126Z,47.95
2023-03-18T04:00:07.943Z,48.35
2023-03-18T04:02:48.886Z,48.11
2023-03-18T04:05:17.525Z,48.21
2023-03-18T04:07:44.627Z,48.22
2023-03-18T04:10:13.898Z,48.49
2023-03-18T04:12:40.712Z,48.64
2023-03-18T04:15:08.240Z,48.53
2023-03-18T04:17:34.828Z,49.02
2023-03-18T04:20:01.757Z,49.02
2023-03-18T04:22:32.578Z,49.05
2023-03-18T04:25:01.070Z,49.21
2023-03-18T04:27:28.192Z,49.55
2023-03-18T04:29:56.311Z,49.55
2023-03-18T04:32:28.824Z,49.70
2023-03-18T04:34:55.625Z,50.02
2023-03-18T04:37:22.561Z,49.83
2023-03-18T04:39:53.680Z,50.39
2023-03-18T04:42:20.163Z,50.70
2023-03-18T04:44:46.870Z,50.81
2023-03-18T04:47:15.400Z,50.67
2023-03-18T04:49:42.001Z,50.36
2023-03-18T04:52:08.633Z,50.56
2023-03-18T04:54:37.301Z,50.92
2023-03-18T04:57:06.690Z,51.14
2023-03-18T04:59:37.946Z,50.55
2023-03-18T05:02:06.606Z,50.83
2023-03-18T05:04:34.625Z,50.28
2023-03-18T05:07:01.592Z,50.25
2023-03-18T05:09:34.268Z,50.20
2023-03-18T05:12:01.277Z,49.85
2023-03-18T05:14:32.952Z,49.66
2023-03-18T05:17:00.585Z,49.07
2023-03-18T05:19:28.485Z,48.21
2023-03-18T05:22:16.401Z,48.05
2023-03-18T05:24:46.009Z,48.08
2023-03-18T05:27:14.703Z,47.26
2023-03-18T05:29:44.661Z,45.94
2023-03-18T05:32:27.862Z,45.31
2023-03-18T05:35:00.774Z,43.95
2023-03-18T05:37:28.608Z,43.51
2023-03-18T05:40:01.600Z,42.37
2023-03-18T05:42:28.721Z,41.12
2023-03-18T05:44:56.942Z,41.45
2023-03-18T05:47:24.902Z,39.95
2023-03-18T05:50:03.949Z,40.27
2023-03-18T05:52:32.699Z,40.68
2023-03-18T05:55:03.352Z,40.36
2023-03-18T05:57:34.262Z,40.61
2023-03-18T06:00:04.556Z,41.19
2023-03-18T06:02:42.405Z,40.87
2023-03-18T06:05:09.082Z,41.35
2023-03-18T06:07:35.570Z,40.10
2023-03-18T06:10:02.203Z,39.42
2023-03-18T06:12:28.893Z,38.74
2023-03-18T06:14:55.378Z,38.65
2023-03-18T06:17:22.374Z,38.81
2023-03-18T06:19:48.924Z,39.95
2023-03-18T06:22:16.857Z,39.49
2023-03-18T06:24:44.026Z,39.44
2023-03-18T06:27:11.168Z,38.65
2023-03-18T06:29:41.716Z,38.90
2023-03-18T06:32:12.940Z,38.73
2023-03-18T06:34:40.183Z,37.96
2023-03-18T06:37:07.797Z,38.68
2023-03-18T06:39:35.272Z,39.15
2023-03-18T06:42:05.138Z,39.59
2023-03-18T06:44:36.759Z,39.21
2023-03-18T06:47:18.791Z,39.53
2023-03-18T06:49:52.244Z,39.89
2023-03-18T06:52:27.561Z,39.08
2023-03-18T06:54:58.916Z,38.92
2023-03-18T06:57:25.740Z,39.22
2023-03-18T06:59:55.610Z,38.84
2023-03-18T07:02:23.678Z,38.25
2023-03-18T07:04:51.088Z,37.52
2023-03-18T07:07:17.804Z,37.71
2023-03-18T07:09:44.952Z,37.87
2023-03-18T07:12:13.822Z,38.09
2023-03-18T07:14:42.054Z,37.84
2023-03-18T07:17:10.561Z,38.56
2023-03-18T07:19:39.776Z,38.43
2023-03-18T07:22:06.574Z,39.47
2023-03-18T07:24:33.506Z,38.40
2023-03-18T07:27:00.025Z,38.15
2023-03-18T07:29:26.523Z,38.73
2023-03-18T07:31:53.720Z,38.35
2023-03-18T07:34:21.316Z,37.89
2023-03-18T07:36:47.850Z,38.57
2023-03-18T07:39:14.821Z,39.46
2023-03-18T07:41:41.437Z,39.15
2023-03-18T07:44:07.972Z,39.60
2023-03-18T07:46:34.523Z,39.10
2023-03-18T07:49:01.189Z,38.43
2023-03-18T07:51:28.002Z,37.59
2023-03-18T07:53:55.189Z,37.01
2023-03-18T07:56:21.870Z,36.92
2023-03-18T07:58:48.408Z,36.49
2023-03-18T08:01:18.537Z,36.19
2023-03-18T08:03:46.417Z,36.20
2023-03-18T08:06:13.321Z,35.80
2023-03-18T08:08:40.541Z,36.39
2023-03-18T08:11:09.106Z,36.99
2023-03-18T08:13:36.334Z,37.75
2023-03-18T08:16:03.602Z,37.14
2023-03-18T08:18:30.479Z,37.12
2023-03-18T08:20:56.946Z,36.32
2023-03-18T08:23:24.252Z,36.44
2023-03-18T08:25:51.045Z,36.20
2023-03-18T08:28:18.161Z,36.61
2023-03-18T08:30:44.840Z,36.83
2023-03-18T08:33:11.419Z,35.93
2023-03-18T08:35:39.340Z,36.10
2023-03-18T08:38:06.911Z,36.54
2023-03-18T08:40:34.889Z,36.46
2023-03-18T08:43:01.571Z,35.77
2023-03-18T08:45:28.710Z,34.83
2023-03-18T08:47:56.031Z,35.37
2023-03-18T08:50:22.826Z,35.42
2023-03-18T08:52:50.515Z,35.62
2023-03-18T08:55:17.939Z,35.33
2023-03-18T08:57:44.683Z,35.10
2023-03-18T09:00:11.609Z,34.90
2023-03-18T09:02:38.330Z,35.17
2023-03-18T09:05:05.297Z,35.03
2023-03-18T09:07:31.889Z,35.28
2023-03-18T09:09:58.374Z,35.84
2023-03-18T09:12:24.969Z,35.32
2023-03-18T09:14:52.703Z,35.43
2023-03-18T09:17:19.253Z,35.56
2023-03-18T09:19:45.839Z,35.33
2023-03-18T09:22:12.443Z,35.09
2023-03-18T09:24:39.522Z,34.70
2023-03-18T09:27:06.120Z,34.72
2023-03-18T09:29:32.907Z,34.53
2023-03-18T09:32:00.688Z,34.75
2023-03-18T09:34:27.318Z,35.53
2023-03-18T09:36:53.786Z,34.64
2023-03-18T09:39:21.029Z,34.56
2023-03-18T09:41:50.363Z,35.30
2023-03-18T09:44:22.964Z,34.89
2023-03-18T09:47:08.534Z,34.56
2023-03-18T09:50:01.050Z,34.38
2023-03-18T09:52:27.647Z,34.91
2023-03-18T09:54:57.624Z,34.85
2023-03-18T09:57:28.658Z,35.06
2023-03-18T10:00:05.367Z,35.06
2023-03-18T10:02:37.947Z,35.02
2023-03-18T10:05:10.659Z,35.59
2023-03-18T10:07:40.386Z,34.46
2023-03-18T10:10:11.901Z,34.35
2023-03-18T10:12:47.851Z,34.37
2023-03-18T10:15:18.744Z,33.66
2023-03-18T10:17:49.176Z,34.79
2023-03-18T10:20:20.646Z,33.74
2023-03-18T10:22:50.203Z,34.01
2023-03-18T10:25:27.229Z,33.77
2023-03-18T10:28:00.604Z,33.84
2023-03-18T10:30:46.031Z,33.98
2023-03-18T10:33:15.444Z,33.46
2023-03-18T10:36:05.578Z,34.95
2023-03-18T10:38:36.386Z,34.13
2023-03-18T10:41:13.060Z,34.48
2023-03-18T10:43:39.816Z,33.70
2023-03-18T10:46:07.457Z,34.95
2023-03-18T10:48:36.844Z,33.80
2023-03-18T10:51:07.646Z,34.15
2023-03-18T10:53:43.604Z,34.67
2023-03-18T10:56:11.534Z,34.02
2023-03-18T10:58:39.150Z,33.40
2023-03-18T11:01:10.161Z,33.75
2023-03-18T11:03:41.496Z,34.79
2023-03-18T11:06:14.885Z,33.42
2023-03-18T11:08:41.673Z,33.14
2023-03-18T11:11:27.396Z,33.69
2023-03-18T11:13:55.976Z,33.59
2023-03-18T11:16:30.605Z,33.53
2023-03-18T11:18:57.785Z,33.66
2023-03-18T11:21:25.708Z,32.73
2023-03-18T11:24:10.916Z,33.16
2023-03-18T11:26:48.348Z,32.93
2023-03-18T11:29:20.553Z,33.42
2023-03-18T11:31:49.642Z,32.29
2023-03-18T11:34:18.959Z,31.98
2023-03-18T11:36:52.748Z,32.99
2023-03-18T11:39:19.561Z,33.63
2023-03-18T11:41:47.592Z,33.13
2023-03-18T11:44:18.976Z,32.06
2023-03-18T11:46:55.366Z,32.59
2023-03-18T11:49:27.138Z,32.57
2023-03-18T11:52:06.790Z,32.03
2023-03-18T11:54:33.615Z,31.84
2023-03-18T11:57:05.805Z,32.92
2023-03-18T11:59:38.535Z,31.78
2023-03-18T12:02:11.177Z,31.77
2023-03-18T12:04:55.816Z,32.86
2023-03-18T12:07:40.624Z,31.91
2023-03-18T12:10:20.447Z,32.41
2023-03-18T12:12:47.628Z,32.93
2023-03-18T12:15:22.605Z,32.21
2023-03-18T12:18:08.680Z,32.23
2023-03-18T12:20:35.675Z,32.49
2023-03-18T12:23:04.409Z,32.27
2023-03-18T12:25:52.877Z,32.16
2023-03-18T12:28:38.221Z,31.56
2023-03-18T12:31:14.156Z,31.33
2023-03-18T12:33:57.717Z,32.63
2023-03-18T12:36:27.208Z,31.68
2023-03-18T12:38:59.906Z,32.01
2023-03-18T12:41:46.094Z,31.79
2023-03-18T12:44:26.253Z,31.68
2023-03-18T12:46:55.221Z,31.88
2023-03-18T12:49:25.519Z,31.73
2023-03-18T12:51:52.232Z,31.45
2023-03-18T12:54:27.441Z,31.68
2023-03-18T12:56:57.079Z,31.47
2023-03-18T12:59:52.988Z,32.68
2023-03-18T13:02:30.299Z,30.81
2023-03-18T13:05:02.163Z,31.60
2023-03-18T13:07:37.780Z,31.42
2023-03-18T13:10:18.658Z,30.93
2023-03-18T13:12:47.511Z,31.72
2023-03-18T13:15:33.171Z,31.23
2023-03-18T13:18:12.707Z,31.24
2023-03-18T13:20:40.221Z,30.47
2023-03-18T13:23:06.687Z,31.26
2023-03-18T13:25:56.422Z,30.25
2023-03-18T13:28:38.268Z,30.47
2023-03-18T13:31:04.922Z,30.88
2023-03-18T13:33:43.780Z,30.68
2023-03-18T13:36:10.533Z,30.84
2023-03-18T13:38:49.048Z,30.65
2023-03-18T13:41:36.412Z,31.00
2023-03-18T13:44:11.191Z,30.60
2023-03-18T13:46:37.851Z,30.37
2023-03-18T13:49:04.474Z,30.84
2023-03-18T13:51:30.927Z,30.69
2023-03-18T13:54:00.138Z,30.04
2023-03-18T13:56:29.032Z,30.25
2023-03-18T13:58:55.652Z,31.87
2023-03-18T14:01:36.384Z,30.52
2023-03-18T14:04:21.547Z,30.56
2023-03-18T14:06:54.268Z,31.25
2023-03-18T14:09:29.638Z,29.84
2023-03-18T14:12:03.886Z,30.30
2023-03-18T14:14:49.348Z,31.27
2023-03-18T14:17:17.716Z,30.07
2023-03-18T14:19:45.159Z,30.54
2023-03-18T14:22:28.417Z,30.20
2023-03-18T14:25:21.520Z,30.14
2023-03-18T14:28:11.722Z,30.07
2023-03-18T14:30:38.217Z,30.18
2023-03-18T14:33:05.868Z,30.44
2023-03-18T14:35:48.475Z,29.54
2023-03-18T14:38:23.286Z,29.78
2023-03-18T14:40:51.614Z,29.69
2023-03-18T14:43:30.067Z,30.14
2023-03-18T14:45:58.776Z,30.51
2023-03-18T14:48:33.956Z,29.05
2023-03-18T14:51:05.751Z,29.95
2023-03-18T14:53:34.522Z,30.15
2023-03-18T14:56:02.565Z,30.11
2023-03-18T14:58:29.169Z,29.55
2023-03-18T15:01:06.202Z,29.66
2023-03-18T15:03:34.067Z,30.10
2023-03-18T15:06:02.447Z,30.37
2023-03-18T15:08:46.868Z,30.33
2023-03-18T15:11:14.793Z,30.62
2023-03-18T15:13:42.039Z,30.52
2023-03-18T15:16:13.634Z,29.92
2023-03-18T15:18:40.561Z,30.53
2023-03-18T15:21:15.602Z,29.78
2023-03-18T15:23:47.347Z,30.68
2023-03-18T15:26:23.829Z,30.38
2023-03-18T15:28:54.565Z,30.70
2023-03-18T15:31:29.027Z,30.54
2023-03-18T15:34:07.689Z,30.48
2023-03-18T15:36:41.106Z,29.76
2023-03-18T15:39:21.626Z,30.09
2023-03-18T15:41:53.275Z,30.77
2023-03-18T15:44:24.723Z,30.65
2023-03-18T15:46:52.374Z,30.96
2023-03-18T15:49:24.266Z,30.57
2023-03-18T15:51:57.180Z,30.71
2023-03-18T15:54:37.807Z,30.83
2023-03-18T15:57:11.052Z,30.54
2023-03-18T15:59:38.062Z,30.88
2023-03-18T16:02:12.685Z,30.84
2023-03-18T16:04:39.430Z,31.08
2023-03-18T16:07:14.721Z,31.01
2023-03-18T16:09:41.512Z,31.11
2023-03-18T16:12:25.052Z,31.26
2023-03-18T16:14:54.685Z,31.54
2023-03-18T16:17:22.270Z,31.89
2023-03-18T16:19:53.851Z,31.89
2023-03-18T16:22:20.547Z,31.79
2023-03-18T16:24:47.235Z,31.82
2023-03-18T16:27:27.776Z,32.16
2023-03-18T16:29:55.407Z,31.90
2023-03-18T16:32:22.950Z,32.18
2023-03-18T16:34:49.654Z,32.16
2023-03-18T16:37:21.579Z,32.66
2023-03-18T16:39:48.364Z,31.93
2023-03-18T16:42:15.296Z,32.76
2023-03-18T16:44:41.822Z,32.70
2023-03-18T16:47:16.473Z,32.34
2023-03-18T16:49:43.371Z,32.63
2023-03-18T16:52:11.884Z,32.76
2023-03-18T16:54:39.365Z,32.91
2023-03-18T16:57:15.613Z,32.86
2023-03-18T16:59:44.626Z,32.71
2023-03-18T17:02:22.361Z,33.19
2023-03-18T17:04:48.941Z,33.18
2023-03-18T17:07:15.584Z,33.32
2023-03-18T17:09:43.272Z,33.26
2023-03-18T17:12:11.205Z,33.09
2023-03-18T17:14:39.890Z,33.30
2023-03-18T17:17:08.657Z,33.36
2023-03-18T17:19:35.444Z,33.39
2023-03-18T17:22:02.454Z,33.66
2023-03-18T17:24:29.026Z,33.81
2023-03-18T17:26:55.609Z,33.79
2023-03-18T17:29:26.364Z,33.90
2023-03-18T17:31:53.558Z,33.86
2023-03-18T17:34:20.596Z,33.66
2023-03-18T17:36:47.877Z,33.68
2023-03-18T17:39:14.836Z,33.60
2023-03-18T17:41:41.558Z,33.86
2023-03-18T17:44:29.989Z,33.77
2023-03-18T17:46:57.195Z,33.96
2023-03-18T17:49:24.899Z,34.28
2023-03-18T17:51:52.291Z,34.49
2023-03-18T17:54:25.158Z,34.83
2023-03-18T17:56:52.319Z,34.35
2023-03-18T17:59:19.520Z,34.82
2023-03-18T18:01:47.623Z,35.03
2023-03-18T18:04:24.854Z,34.74
2023-03-18T18:06:51.525Z,34.90
2023-03-18T18:09:19.324Z,34.66
2023-03-18T18:11:46.837Z,34.66
2023-03-18T18:14:16.424Z,34.99
2023-03-18T18:16:43.732Z,34.98
2023-03-18T18:19:10.840Z,35.41
2023-03-18T18:21:37.729Z,35.18
2023-03-18T18:24:04.425Z,34.91
2023-03-18T18:26:30.958Z,35.23
2023-03-18T18:28:57.816Z,35.52
2023-03-18T18:31:25.504Z,35.19
2023-03-18T18:33:52.634Z,35.75
2023-03-18T18:36:19.220Z,35.96
2023-03-18T18:38:45.968Z,35.98
2023-03-18T18:41:12.506Z,35.66
2023-03-18T18:43:39.114Z,35.80
2023-03-18T18:46:09.841Z,36.32
2023-03-18T18:48:39.202Z,36.13
2023-03-18T18:51:05.742Z,35.98
2023-03-18T18:53:35.711Z,35.98
2023-03-18T18:56:06.748Z,36.26
2023-03-18T18:58:33.623Z,36.09
2023-03-18T19:01:00.251Z,36.94
2023-03-18T19:03:30.355Z,36.83
2023-03-18T19:05:57.276Z,36.17
2023-03-18T19:08:28.252Z,36.52
2023-03-18T19:10:56.369Z,36.22
2023-03-18T19:13:28.348Z,36.44
2023-03-18T19:15:56.068Z,36.41
2023-03-18T19:18:24.061Z,36.38
2023-03-18T19:20:51.804Z,36.84
2023-03-18T19:23:21.997Z,36.61
2023-03-18T19:25:48.785Z,36.51
2023-03-18T19:28:47.802Z,36.67
2023-03-18T19:31:22.225Z,36.90
2023-03-18T19:33:52.188Z,37.48
2023-03-18T19:36:21.770Z,37.63
2023-03-18T19:38:48.607Z,37.96
2023-03-18T19:41:15.153Z,38.04
2023-03-18T19:43:42.406Z,38.34
2023-03-18T19:46:20.072Z,38.61
2023-03-18T19:48:47.103Z,38.32
2023-03-18T19:51:15.546Z,38.87
2023-03-18T19:53:43.964Z,39.13
2023-03-18T19:56:31.742Z,38.75
2023-03-18T19:58:59.086Z,39.60
2023-03-18T20:01:27.094Z,39.06
2023-03-18T20:03:57.325Z,39.42
2023-03-18T20:06:24.793Z,40.05
2023-03-18T20:08:51.734Z,39.75
2023-03-18T20:11:20.882Z,40.41
2023-03-18T20:13:47.818Z,40.95
2023-03-18T20:16:15.658Z,40.71
2023-03-18T20:18:42.591Z,40.43
2023-03-18T20:21:14.914Z,40.73
2023-03-18T20:23:41.458Z,40.79
2023-03-18T20:26:07.949Z,41.00
2023-03-18T20:28:34.417Z,41.40
2023-03-18T20:31:01.159Z,41.16
2023-03-18T20:33:27.766Z,41.13
2023-03-18T20:35:54.427Z,40.40
2023-03-18T20:38:35.307Z,41.08
2023-03-18T20:41:02.477Z,41.21
2023-03-18T20:43:29.247Z,41.00
2023-03-18T20:45:56.981Z,41.50
2023-03-18T20:48:23.871Z,41.14
2023-03-18T20:50:51.221Z,41.56
2023-03-18T20:53:17.942Z,41.48
2023-03-18T20:55:46.951Z,41.78
2023-03-18T20:58:15.042Z,41.63
2023-03-18T21:00:42.071Z,41.82
2023-03-18T21:03:20.041Z,42.19
2023-03-18T21:05:47.516Z,42.21
2023-03-18T21:08:14.129Z,42.32
2023-03-18T21:10:40.844Z,43.07
2023-03-18T21:13:26.632Z,43.01
2023-03-18T21:15:53.354Z,43.46
2023-03-18T21:18:19.896Z,43.64
2023-03-18T21:20:46.844Z,44.26
2023-03-18T21:23:34.123Z,44.60
2023-03-18T21:26:03.181Z,44.34
2023-03-18T21:28:30.617Z,45.00
2023-03-18T21:30:58.496Z,45.31
2023-03-18T21:33:33.219Z,45.70
2023-03-18T21:36:00.543Z,46.09
2023-03-18T21:38:31.588Z,45.99
2023-03-18T21:40:59.134Z,46.00
2023-03-18T21:43:28.012Z,46.73
2023-03-18T21:45:54.927Z,46.78
2023-03-18T21:48:21.760Z,46.98
2023-03-18T21:50:48.920Z,47.60
2023-03-18T21:53:16.362Z,47.40
2023-03-18T21:55:42.889Z,47.33
2023-03-18T21:58:15.603Z,47.45
2023-03-18T22:00:42.347Z,47.85
2023-03-18T22:03:13.431Z,47.84
2023-03-18T22:05:40.038Z,48.27
2023-03-18T22:08:06.540Z,48.11
2023-03-18T22:10:33.569Z,48.37
2023-03-18T22:13:00.125Z,48.79
2023-03-18T22:15:29.464Z,48.42
2023-03-18T22:17:56.563Z,49.27
2023-03-18T22:20:23.324Z,48.81
2023-03-18T22:22:50.152Z,49.11
2023-03-18T22:25:37.030Z,49.58
2023-03-18T22:28:04.114Z,49.62
2023-03-18T22:30:31.976Z,50.16
2023-03-18T22:32:59.880Z,50.12
2023-03-18T22:35:27.444Z,50.58
2023-03-18T22:37:54.457Z,50.16
2023-03-18T22:40:25.358Z,50.64
2023-03-18T22:42:53.105Z,50.72
2023-03-18T22:45:19.773Z,50.75
2023-03-18T22:47:46.385Z,51.05
2023-03-18T22:50:12.950Z,51.45
2023-03-18T22:52:39.795Z,51.61
2023-03-18T22:55:24.993Z,52.33
2023-03-18T22:57:51.926Z,52.28
2023-03-18T23:00:21.901Z,52.39
2023-03-18T23:02:50.231Z,52.61
2023-03-18T23:05:18.055Z,53.16
2023-03-18T23:07:44.916Z,53.76
2023-03-18T23:10:12.065Z,53.72
2023-03-18T23:12:38.671Z,54.04
2023-03-18T23:15:06.269Z,54.50
2023-03-18T23:17:33.140Z,54.24
2023-03-18T23:19:59.824Z,54.69
2023-03-18T23:22:28.104Z,54.90
2023-03-18T23:24:55.112Z,55.21
2023-03-18T23:27:22.754Z,55.40
2023-03-18T23:29:50.098Z,55.32
2023-03-18T23:32:17.662Z,55.71
2023-03-18T23:34:44.795Z,55.81
2023-03-18T23:37:11.822Z,56.08
2023-03-18T23:39:46.291Z,55.68
2023-03-18T23:42:13.436Z,56.21
2023-03-18T23:44:39.929Z,56.29
2023-03-18T23:47:07.288Z,56.66
2023-03-18T23:49:34.140Z,56.53
2023-03-18T23:52:01.725Z,56.55
2023-03-18T23:54:28.279Z,56.55
2023-03-18T23:56:54.990Z,56.51
2023-03-18T23:59:21.696Z,56.51
